Christian Reinauer — WDA6472 — position and weather

sailwx.info

Track history (hours):
 
Tides and Currents Weather Stations Pressure Air Temp Water Temp Dewpoint Dewpoint Depression Visibility Wind Speed Wind Dir Waves Ship Positions

Christian Reinauer

Owner: REINAUER TRANSPORTATION CO LLC, STATEN ISLAND, NY. More information available from US FCC via Universal Licensing System and Coast Guard Vessel Documentation Center.

Last reported at 2017-Nov-24 07:32 UTC. Time now 2017-Nov-24 11:02 UTC.
Position N 40°31' W 074°15'.

Length 172 m; draft 6.2 m.

Type: . MMSI: 366832740.

Date/timePositionNaut miles runAvg speedWind from/ knotsBaromVisibWave heightAir tempDewpointWater temp
2017-Nov-24 07:32N 40°31' W 074°15'1 7.8
2017-Nov-24 07:23N 40°32' W 074°15'0 0.3
2017-Nov-24 06:25N 40°32' W 074°15'0 0.0
2017-Nov-23 18:41N 40°32' W 074°15'0 0.6
2017-Nov-23 18:30N 40°32' W 074°15'4 5.0
2017-Nov-23 17:41N 40°30' W 074°11'211.2
2017-Nov-23 17:30N 40°30' W 074°08'1 0.2
2017-Nov-23 13:24N 40°29' W 074°07'0 0.0
2017-Nov-23 11:33N 40°29' W 074°07'0 0.1
2017-Nov-23 11:24N 40°29' W 074°07'0 0.0
2017-Nov-23 11:00N 40°29' W 074°07'0 0.0
2017-Nov-23 08:22N 40°29' W 074°07'0 0.0
2017-Nov-23 07:59N 40°29' W 074°07'0 0.8
2017-Nov-23 07:30N 40°29' W 074°06'3 6.0
2017-Nov-23 07:00N 40°30' W 074°03'611.8
2017-Nov-23 06:30N 40°36' W 074°03'5 9.9
2017-Nov-23 06:00N 40°41' W 074°01'4 8.8
2017-Nov-23 05:30N 40°45' W 073°58'5 9.0
2017-Nov-23 05:00N 40°48' W 073°54'4 8.4
2017-Nov-23 04:29N 40°48' W 073°48'5 9.9
2017-Nov-23 04:00N 40°52' W 073°44'711.7
2017-Nov-23 03:24N 40°56' W 073°37'4211.2
2017-Nov-22 23:38N 41°03' W 072°41'410.6
2017-Nov-22 23:18N 41°05' W 072°37'310.4
2017-Nov-22 23:00N 41°06' W 072°34'510.1
2017-Nov-22 22:30N 41°09' W 072°28'5 9.4
2017-Nov-22 22:00N 41°10' W 072°22'5 8.9
2017-Nov-22 21:30N 41°12' W 072°16'5 9.3
2017-Nov-22 21:00N 41°13' W 072°11'8 9.6
2017-Nov-22 20:10N 41°14' W 072°00'  
2017-Nov-19 19:19N 40°32' W 074°15'0 0.0
2017-Nov-19 18:37N 40°32' W 074°15'0 0.0
2017-Nov-19 12:01N 40°32' W 074°15'0 0.0
2017-Nov-19 11:41N 40°32' W 074°15'0 0.1
2017-Nov-19 11:30N 40°32' W 074°15'1 0.9
2017-Nov-19 10:52N 40°33' W 074°15'2 4.4
2017-Nov-19 10:27N 40°34' W 074°13'3 7.1
2017-Nov-19 10:00N 40°37' W 074°12'3 5.8
2017-Nov-19 09:30N 40°39' W 074°09'4 7.8
2017-Nov-19 09:00N 40°39' W 074°04'4 7.6
2017-Nov-19 08:30N 40°42' W 074°00'4 8.2
2017-Nov-19 08:00N 40°45' W 073°58'5 9.1
2017-Nov-19 07:29N 40°48' W 073°53'5 9.6
2017-Nov-19 07:00N 40°49' W 073°47'510.9
2017-Nov-19 06:31N 40°53' W 073°42'1 0.0
2017-Nov-17 20:57N 40°53' W 073°44'611.1
2017-Nov-17 20:27N 40°48' W 073°47'510.8
2017-Nov-17 20:00N 40°48' W 073°54'3 6.7
2017-Nov-17 19:30N 40°46' W 073°57'3 6.2
2017-Nov-17 19:00N 40°43' W 073°58'3 5.8
2017-Nov-17 18:30N 40°41' W 074°01'4 7.0
2017-Nov-17 18:01N 40°38' W 074°03'1 2.3
2017-Nov-17 17:31N 40°37' W 074°03'2 4.5
2017-Nov-17 17:01N 40°39' W 074°04'3 6.1
2017-Nov-17 16:30N 40°42' W 074°02'3 6.0
2017-Nov-17 16:00N 40°45' W 074°01'1 2.8
2017-Nov-17 15:30N 40°43' W 074°01'4 7.8
2017-Nov-17 15:00N 40°40' W 074°03'3 5.1
2017-Nov-17 14:30N 40°39' W 074°06'4 7.8
2017-Nov-17 14:01N 40°39' W 074°11'3 5.4
2017-Nov-17 13:29N 40°36' W 074°12'3 5.5
2017-Nov-17 12:59N 40°33' W 074°13'1 1.7
2017-Nov-17 12:30N 40°33' W 074°14'0 0.0
2017-Nov-17 11:59N 40°33' W 074°14'0 0.0
2017-Nov-17 11:28N 40°33' W 074°14'0 0.0
2017-Nov-17 10:55N 40°33' W 074°14'0 0.0
2017-Nov-17 10:25N 40°33' W 074°14'0 0.0
2017-Nov-17 09:52N 40°33' W 074°14'0 0.0
2017-Nov-17 09:28N 40°33' W 074°14'0 0.0
2017-Nov-17 08:58N 40°33' W 074°14'0 0.0
2017-Nov-17 08:25N 40°33' W 074°14'0 0.0
2017-Nov-17 07:52N 40°33' W 074°14'0 0.0
2017-Nov-17 07:28N 40°33' W 074°14'0 0.0
2017-Nov-17 06:49N 40°33' W 074°14'0 0.0
2017-Nov-17 06:22N 40°33' W 074°14'0 0.0
2017-Nov-17 05:40N 40°33' W 074°14'0 0.0
2017-Nov-17 05:22N 40°33' W 074°14'0 0.0
2017-Nov-17 04:52N 40°33' W 074°14'0 0.0
2017-Nov-17 04:16N 40°33' W 074°14'0 0.0
2017-Nov-17 01:28N 40°33' W 074°14'0 0.0
2017-Nov-17 00:52N 40°33' W 074°14'0 0.0
2017-Nov-16 21:31N 40°33' W 074°14'0 0.0
2017-Nov-16 21:10N 40°33' W 074°14'0 0.0
2017-Nov-16 20:40N 40°33' W 074°14'0 0.0
2017-Nov-16 20:22N 40°33' W 074°14'0 0.0
2017-Nov-16 19:52N 40°33' W 074°14'0 0.0
2017-Nov-16 19:25N 40°33' W 074°14'0 0.0
2017-Nov-16 18:37N 40°33' W 074°14'0 0.0
2017-Nov-15 23:15N 40°33' W 074°14'1 2.2
2017-Nov-15 22:42N 40°34' W 074°13'2 7.4
2017-Nov-15 22:29N 40°35' W 074°12'3 5.5
2017-Nov-15 22:00N 40°38' W 074°12'4 8.0
2017-Nov-15 21:30N 40°39' W 074°07'4 7.5
2017-Nov-15 21:00N 40°40' W 074°02'4 8.1
2017-Nov-15 20:30N 40°43' W 073°58'4 7.9
2017-Nov-15 20:00N 40°47' W 073°56'4 7.1
2017-Nov-15 19:30N 40°48' W 073°52'4 8.6
2017-Nov-15 19:00N 40°50' W 073°47'610.9
2017-Nov-15 18:25N 40°54' W 073°40'  
Track history (hours):
 
Tides and Currents Weather Stations Pressure Air Temp Water Temp Dewpoint Dewpoint Depression Visibility Wind Speed Wind Dir Waves Ship Positions

Christian Reinauer

Owner: REINAUER TRANSPORTATION CO LLC, STATEN ISLAND, NY. More information available from US FCC via Universal Licensing System and Coast Guard Vessel Documentation Center.

Last reported at 2017-Nov-24 07:32 UTC. Time now 2017-Nov-24 11:02 UTC.
Position N 40°31' W 074°15'.

Length 172 m; draft 6.2 m.

Type: . MMSI: 366832740.

Date/timePositionNaut miles runAvg speedWind from/ knotsBaromVisibWave heightAir tempDewpointWater temp
2017-Nov-24 07:32N 40°31' W 074°15'1 7.8
2017-Nov-24 07:23N 40°32' W 074°15'0 0.3
2017-Nov-24 06:25N 40°32' W 074°15'0 0.0
2017-Nov-23 18:41N 40°32' W 074°15'0 0.6
2017-Nov-23 18:30N 40°32' W 074°15'4 5.0
2017-Nov-23 17:41N 40°30' W 074°11'211.2
2017-Nov-23 17:30N 40°30' W 074°08'1 0.2
2017-Nov-23 13:24N 40°29' W 074°07'0 0.0
2017-Nov-23 11:33N 40°29' W 074°07'0 0.1
2017-Nov-23 11:24N 40°29' W 074°07'0 0.0
2017-Nov-23 11:00N 40°29' W 074°07'0 0.0
2017-Nov-23 08:22N 40°29' W 074°07'0 0.0
2017-Nov-23 07:59N 40°29' W 074°07'0 0.8
2017-Nov-23 07:30N 40°29' W 074°06'3 6.0
2017-Nov-23 07:00N 40°30' W 074°03'611.8
2017-Nov-23 06:30N 40°36' W 074°03'5 9.9
2017-Nov-23 06:00N 40°41' W 074°01'4 8.8
2017-Nov-23 05:30N 40°45' W 073°58'5 9.0
2017-Nov-23 05:00N 40°48' W 073°54'4 8.4
2017-Nov-23 04:29N 40°48' W 073°48'5 9.9
2017-Nov-23 04:00N 40°52' W 073°44'711.7
2017-Nov-23 03:24N 40°56' W 073°37'4211.2
2017-Nov-22 23:38N 41°03' W 072°41'410.6
2017-Nov-22 23:18N 41°05' W 072°37'310.4
2017-Nov-22 23:00N 41°06' W 072°34'510.1
2017-Nov-22 22:30N 41°09' W 072°28'5 9.4
2017-Nov-22 22:00N 41°10' W 072°22'5 8.9
2017-Nov-22 21:30N 41°12' W 072°16'5 9.3
2017-Nov-22 21:00N 41°13' W 072°11'8 9.6
2017-Nov-22 20:10N 41°14' W 072°00'  
2017-Nov-19 19:19N 40°32' W 074°15'0 0.0
2017-Nov-19 18:37N 40°32' W 074°15'0 0.0
2017-Nov-19 12:01N 40°32' W 074°15'0 0.0
2017-Nov-19 11:41N 40°32' W 074°15'0 0.1
2017-Nov-19 11:30N 40°32' W 074°15'1 0.9
2017-Nov-19 10:52N 40°33' W 074°15'2 4.4
2017-Nov-19 10:27N 40°34' W 074°13'3 7.1
2017-Nov-19 10:00N 40°37' W 074°12'3 5.8
2017-Nov-19 09:30N 40°39' W 074°09'4 7.8
2017-Nov-19 09:00N 40°39' W 074°04'4 7.6
2017-Nov-19 08:30N 40°42' W 074°00'4 8.2
2017-Nov-19 08:00N 40°45' W 073°58'5 9.1
2017-Nov-19 07:29N 40°48' W 073°53'5 9.6
2017-Nov-19 07:00N 40°49' W 073°47'510.9
2017-Nov-19 06:31N 40°53' W 073°42'1 0.0
2017-Nov-17 20:57N 40°53' W 073°44'611.1
2017-Nov-17 20:27N 40°48' W 073°47'510.8
2017-Nov-17 20:00N 40°48' W 073°54'3 6.7
2017-Nov-17 19:30N 40°46' W 073°57'3 6.2
2017-Nov-17 19:00N 40°43' W 073°58'3 5.8
2017-Nov-17 18:30N 40°41' W 074°01'4 7.0
2017-Nov-17 18:01N 40°38' W 074°03'1 2.3
2017-Nov-17 17:31N 40°37' W 074°03'2 4.5
2017-Nov-17 17:01N 40°39' W 074°04'3 6.1
2017-Nov-17 16:30N 40°42' W 074°02'3 6.0
2017-Nov-17 16:00N 40°45' W 074°01'1 2.8
2017-Nov-17 15:30N 40°43' W 074°01'4 7.8
2017-Nov-17 15:00N 40°40' W 074°03'3 5.1
2017-Nov-17 14:30N 40°39' W 074°06'4 7.8
2017-Nov-17 14:01N 40°39' W 074°11'3 5.4
2017-Nov-17 13:29N 40°36' W 074°12'3 5.5
2017-Nov-17 12:59N 40°33' W 074°13'1 1.7
2017-Nov-17 12:30N 40°33' W 074°14'0 0.0
2017-Nov-17 11:59N 40°33' W 074°14'0 0.0
2017-Nov-17 11:28N 40°33' W 074°14'0 0.0
2017-Nov-17 10:55N 40°33' W 074°14'0 0.0
2017-Nov-17 10:25N 40°33' W 074°14'0 0.0
2017-Nov-17 09:52N 40°33' W 074°14'0 0.0
2017-Nov-17 09:28N 40°33' W 074°14'0 0.0
2017-Nov-17 08:58N 40°33' W 074°14'0 0.0
2017-Nov-17 08:25N 40°33' W 074°14'0 0.0
2017-Nov-17 07:52N 40°33' W 074°14'0 0.0
2017-Nov-17 07:28N 40°33' W 074°14'0 0.0
2017-Nov-17 06:49N 40°33' W 074°14'0 0.0
2017-Nov-17 06:22N 40°33' W 074°14'0 0.0
2017-Nov-17 05:40N 40°33' W 074°14'0 0.0
2017-Nov-17 05:22N 40°33' W 074°14'0 0.0
2017-Nov-17 04:52N 40°33' W 074°14'0 0.0
2017-Nov-17 04:16N 40°33' W 074°14'0 0.0
2017-Nov-17 01:28N 40°33' W 074°14'0 0.0
2017-Nov-17 00:52N 40°33' W 074°14'0 0.0
2017-Nov-16 21:31N 40°33' W 074°14'0 0.0
2017-Nov-16 21:10N 40°33' W 074°14'0 0.0
2017-Nov-16 20:40N 40°33' W 074°14'0 0.0
2017-Nov-16 20:22N 40°33' W 074°14'0 0.0
2017-Nov-16 19:52N 40°33' W 074°14'0 0.0
2017-Nov-16 19:25N 40°33' W 074°14'0 0.0
2017-Nov-16 18:37N 40°33' W 074°14'0 0.0
2017-Nov-15 23:15N 40°33' W 074°14'1 2.2
2017-Nov-15 22:42N 40°34' W 074°13'2 7.4
2017-Nov-15 22:29N 40°35' W 074°12'3 5.5
2017-Nov-15 22:00N 40°38' W 074°12'4 8.0
2017-Nov-15 21:30N 40°39' W 074°07'4 7.5
2017-Nov-15 21:00N 40°40' W 074°02'4 8.1
2017-Nov-15 20:30N 40°43' W 073°58'4 7.9
2017-Nov-15 20:00N 40°47' W 073°56'4 7.1
2017-Nov-15 19:30N 40°48' W 073°52'4 8.6
2017-Nov-15 19:00N 40°50' W 073°47'610.9
2017-Nov-15 18:25N 40°54' W 073°40'  

Dump ship's entire track history